sensor_id;sensor_type;location;lat;lon;timestamp;temperature;humidity
46123;DHT22;31856;-35.404;149.120;2023-07-31T00:01:07;12.30;64.50
46123;DHT22;31856;-35.404;149.120;2023-07-31T00:03:36;12.40;64.30
46123;DHT22;31856;-35.404;149.120;2023-07-31T00:06:06;12.50;64.10
46123;DHT22;31856;-35.404;149.120;2023-07-31T00:08:35;12.60;63.80
46123;DHT22;31856;-35.404;149.120;2023-07-31T00:11:05;12.70;63.50
46123;DHT22;31856;-35.404;149.120;2023-07-31T00:13:35;12.80;63.60
46123;DHT22;31856;-35.404;149.120;2023-07-31T00:16:04;12.80;63.30
46123;DHT22;31856;-35.404;149.120;2023-07-31T00:18:34;12.90;63.50
46123;DHT22;31856;-35.404;149.120;2023-07-31T00:21:05;12.90;63.20
46123;DHT22;31856;-35.404;149.120;2023-07-31T00:23:35;13.00;63.30
46123;DHT22;31856;-35.404;149.120;2023-07-31T00:26:05;13.10;63.00
46123;DHT22;31856;-35.404;149.120;2023-07-31T00:28:34;13.10;62.60
46123;DHT22;31856;-35.404;149.120;2023-07-31T00:31:04;13.20;62.70
46123;DHT22;31856;-35.404;149.120;2023-07-31T00:33:34;13.30;62.40
46123;DHT22;31856;-35.404;149.120;2023-07-31T00:36:04;13.30;61.90
46123;DHT22;31856;-35.404;149.120;2023-07-31T00:38:34;13.30;61.10
46123;DHT22;31856;-35.404;149.120;2023-07-31T00:41:04;13.40;61.30
46123;DHT22;31856;-35.404;149.120;2023-07-31T00:43:34;13.40;61.40
46123;DHT22;31856;-35.404;149.120;2023-07-31T00:46:03;13.50;61.00
46123;DHT22;31856;-35.404;149.120;2023-07-31T00:48:34;13.60;61.00
46123;DHT22;31856;-35.404;149.120;2023-07-31T00:51:04;13.70;61.20
46123;DHT22;31856;-35.404;149.120;2023-07-31T00:53:34;13.80;60.80
46123;DHT22;31856;-35.404;149.120;2023-07-31T00:56:04;13.80;60.50
46123;DHT22;31856;-35.404;149.120;2023-07-31T00:58:33;13.80;60.20
46123;DHT22;31856;-35.404;149.120;2023-07-31T01:01:03;13.80;60.20
46123;DHT22;31856;-35.404;149.120;2023-07-31T01:03:33;14.00;60.00
46123;DHT22;31856;-35.404;149.120;2023-07-31T01:08:54;14.10;59.50
46123;DHT22;31856;-35.404;149.120;2023-07-31T01:11:30;14.10;59.60
46123;DHT22;31856;-35.404;149.120;2023-07-31T01:14:00;14.20;59.80
46123;DHT22;31856;-35.404;149.120;2023-07-31T01:16:30;14.20;59.70
46123;DHT22;31856;-35.404;149.120;2023-07-31T01:19:00;14.30;59.80
46123;DHT22;31856;-35.404;149.120;2023-07-31T01:24:08;14.40;59.30
46123;DHT22;31856;-35.404;149.120;2023-07-31T01:26:45;14.40;59.60
46123;DHT22;31856;-35.404;149.120;2023-07-31T01:29:24;14.50;59.10
46123;DHT22;31856;-35.404;149.120;2023-07-31T01:31:56;14.50;59.20
46123;DHT22;31856;-35.404;149.120;2023-07-31T01:34:27;14.50;59.40
46123;DHT22;31856;-35.404;149.120;2023-07-31T01:36:57;14.60;59.90
46123;DHT22;31856;-35.404;149.120;2023-07-31T01:39:27;14.60;59.80
46123;DHT22;31856;-35.404;149.120;2023-07-31T01:41:57;14.60;60.10
46123;DHT22;31856;-35.404;149.120;2023-07-31T01:44:26;14.70;60.20
46123;DHT22;31856;-35.404;149.120;2023-07-31T01:46:57;14.80;59.80
46123;DHT22;31856;-35.404;149.120;2023-07-31T01:49:28;14.80;59.70
46123;DHT22;31856;-35.404;149.120;2023-07-31T01:51:58;14.80;58.90
46123;DHT22;31856;-35.404;149.120;2023-07-31T01:54:28;14.90;55.60
46123;DHT22;31856;-35.404;149.120;2023-07-31T01:56:57;15.10;54.60
46123;DHT22;31856;-35.404;149.120;2023-07-31T01:59:27;15.20;53.30
46123;DHT22;31856;-35.404;149.120;2023-07-31T02:01:57;15.20;52.40
46123;DHT22;31856;-35.404;149.120;2023-07-31T02:04:27;15.30;54.40
46123;DHT22;31856;-35.404;149.120;2023-07-31T02:06:56;15.30;56.10
46123;DHT22;31856;-35.404;149.120;2023-07-31T02:09:26;15.30;56.50
46123;DHT22;31856;-35.404;149.120;2023-07-31T02:11:56;15.30;57.10
46123;DHT22;31856;-35.404;149.120;2023-07-31T02:14:25;15.30;57.90
46123;DHT22;31856;-35.404;149.120;2023-07-31T02:16:56;15.30;58.30
46123;DHT22;31856;-35.404;149.120;2023-07-31T02:19:25;15.30;58.40
46123;DHT22;31856;-35.404;149.120;2023-07-31T02:21:55;15.30;57.80
46123;DHT22;31856;-35.404;149.120;2023-07-31T02:24:25;15.30;58.20
46123;DHT22;31856;-35.404;149.120;2023-07-31T02:26:54;15.30;58.10
46123;DHT22;31856;-35.404;149.120;2023-07-31T02:29:24;15.30;58.00
46123;DHT22;31856;-35.404;149.120;2023-07-31T02:31:53;15.40;57.40
46123;DHT22;31856;-35.404;149.120;2023-07-31T02:34:23;15.40;56.10
46123;DHT22;31856;-35.404;149.120;2023-07-31T02:36:52;15.40;55.90
46123;DHT22;31856;-35.404;149.120;2023-07-31T02:39:22;15.50;53.30
46123;DHT22;31856;-35.404;149.120;2023-07-31T02:41:51;15.60;52.60
46123;DHT22;31856;-35.404;149.120;2023-07-31T02:44:21;15.60;52.10
46123;DHT22;31856;-35.404;149.120;2023-07-31T02:46:50;15.60;52.20
46123;DHT22;31856;-35.404;149.120;2023-07-31T02:49:20;15.70;52.10
46123;DHT22;31856;-35.404;149.120;2023-07-31T02:51:49;15.80;51.90
46123;DHT22;31856;-35.404;149.120;2023-07-31T02:54:19;15.80;50.40
46123;DHT22;31856;-35.404;149.120;2023-07-31T02:56:50;15.90;50.80
46123;DHT22;31856;-35.404;149.120;2023-07-31T02:59:20;15.90;50.30
46123;DHT22;31856;-35.404;149.120;2023-07-31T03:01:49;16.00;50.50
46123;DHT22;31856;-35.404;149.120;2023-07-31T03:04:19;16.10;50.20
46123;DHT22;31856;-35.404;149.120;2023-07-31T03:06:48;16.10;50.10
46123;DHT22;31856;-35.404;149.120;2023-07-31T03:09:18;16.10;50.20
46123;DHT22;31856;-35.404;149.120;2023-07-31T03:11:48;16.00;50.80
46123;DHT22;31856;-35.404;149.120;2023-07-31T03:14:18;15.90;51.40
46123;DHT22;31856;-35.404;149.120;2023-07-31T03:16:48;16.00;50.40
46123;DHT22;31856;-35.404;149.120;2023-07-31T03:19:17;15.90;49.50
46123;DHT22;31856;-35.404;149.120;2023-07-31T03:21:47;15.90;50.20
46123;DHT22;31856;-35.404;149.120;2023-07-31T03:24:17;15.80;49.50
46123;DHT22;31856;-35.404;149.120;2023-07-31T03:26:47;16.00;50.20
46123;DHT22;31856;-35.404;149.120;2023-07-31T03:29:16;16.00;50.30
46123;DHT22;31856;-35.404;149.120;2023-07-31T03:31:50;16.00;50.30
46123;DHT22;31856;-35.404;149.120;2023-07-31T03:34:20;15.90;50.90
46123;DHT22;31856;-35.404;149.120;2023-07-31T03:36:49;15.90;50.60
46123;DHT22;31856;-35.404;149.120;2023-07-31T03:39:19;15.80;49.30
46123;DHT22;31856;-35.404;149.120;2023-07-31T03:41:49;15.80;48.70
46123;DHT22;31856;-35.404;149.120;2023-07-31T03:44:18;15.80;49.00
46123;DHT22;31856;-35.404;149.120;2023-07-31T03:46:48;15.80;49.40
46123;DHT22;31856;-35.404;149.120;2023-07-31T03:49:18;15.80;49.50
46123;DHT22;31856;-35.404;149.120;2023-07-31T03:51:48;15.80;49.10
46123;DHT22;31856;-35.404;149.120;2023-07-31T03:54:18;15.80;48.00
46123;DHT22;31856;-35.404;149.120;2023-07-31T03:56:47;15.80;48.80
46123;DHT22;31856;-35.404;149.120;2023-07-31T03:59:17;15.80;48.30
46123;DHT22;31856;-35.404;149.120;2023-07-31T04:01:47;15.80;48.60
46123;DHT22;31856;-35.404;149.120;2023-07-31T04:04:16;15.80;50.20
46123;DHT22;31856;-35.404;149.120;2023-07-31T04:06:45;15.70;51.20
46123;DHT22;31856;-35.404;149.120;2023-07-31T04:09:15;15.70;50.90
46123;DHT22;31856;-35.404;149.120;2023-07-31T04:11:44;15.70;49.70
46123;DHT22;31856;-35.404;149.120;2023-07-31T04:14:14;15.70;48.80
46123;DHT22;31856;-35.404;149.120;2023-07-31T04:16:43;15.70;48.70
46123;DHT22;31856;-35.404;149.120;2023-07-31T04:19:13;15.80;48.40
46123;DHT22;31856;-35.404;149.120;2023-07-31T04:21:45;15.70;49.20
46123;DHT22;31856;-35.404;149.120;2023-07-31T04:24:15;15.70;50.00
46123;DHT22;31856;-35.404;149.120;2023-07-31T04:26:45;15.60;50.20
46123;DHT22;31856;-35.404;149.120;2023-07-31T04:29:15;15.70;48.10
46123;DHT22;31856;-35.404;149.120;2023-07-31T04:31:44;15.70;45.30
46123;DHT22;31856;-35.404;149.120;2023-07-31T04:34:14;15.80;44.80
46123;DHT22;31856;-35.404;149.120;2023-07-31T04:36:44;15.70;45.50
46123;DHT22;31856;-35.404;149.120;2023-07-31T04:39:13;15.80;46.50
46123;DHT22;31856;-35.404;149.120;2023-07-31T04:41:43;15.80;45.50
46123;DHT22;31856;-35.404;149.120;2023-07-31T04:44:12;15.80;45.00
46123;DHT22;31856;-35.404;149.120;2023-07-31T04:46:42;15.70;45.00
46123;DHT22;31856;-35.404;149.120;2023-07-31T04:49:11;15.50;44.60
46123;DHT22;31856;-35.404;149.120;2023-07-31T04:51:41;15.40;44.20
46123;DHT22;31856;-35.404;149.120;2023-07-31T04:54:11;15.40;44.40
46123;DHT22;31856;-35.404;149.120;2023-07-31T04:56:43;15.40;45.20
46123;DHT22;31856;-35.404;149.120;2023-07-31T04:59:13;15.30;45.60
46123;DHT22;31856;-35.404;149.120;2023-07-31T05:01:42;15.30;46.60
46123;DHT22;31856;-35.404;149.120;2023-07-31T05:04:14;15.20;46.20
46123;DHT22;31856;-35.404;149.120;2023-07-31T05:06:43;15.10;46.10
46123;DHT22;31856;-35.404;149.120;2023-07-31T05:09:13;15.10;45.70
46123;DHT22;31856;-35.404;149.120;2023-07-31T05:11:43;15.00;45.80
46123;DHT22;31856;-35.404;149.120;2023-07-31T05:14:12;15.00;46.50
46123;DHT22;31856;-35.404;149.120;2023-07-31T05:16:42;15.00;47.00
46123;DHT22;31856;-35.404;149.120;2023-07-31T05:19:11;15.00;47.50
46123;DHT22;31856;-35.404;149.120;2023-07-31T05:21:41;15.00;48.10
46123;DHT22;31856;-35.404;149.120;2023-07-31T05:24:10;14.90;48.20
46123;DHT22;31856;-35.404;149.120;2023-07-31T05:26:40;14.90;48.60
46123;DHT22;31856;-35.404;149.120;2023-07-31T05:29:09;14.80;48.20
46123;DHT22;31856;-35.404;149.120;2023-07-31T05:31:39;14.90;48.50
46123;DHT22;31856;-35.404;149.120;2023-07-31T05:34:08;14.70;48.10
46123;DHT22;31856;-35.404;149.120;2023-07-31T05:36:37;14.70;48.60
46123;DHT22;31856;-35.404;149.120;2023-07-31T05:39:08;14.70;48.80
46123;DHT22;31856;-35.404;149.120;2023-07-31T05:41:37;14.70;48.70
46123;DHT22;31856;-35.404;149.120;2023-07-31T05:44:07;14.70;49.40
46123;DHT22;31856;-35.404;149.120;2023-07-31T05:46:36;14.60;49.40
46123;DHT22;31856;-35.404;149.120;2023-07-31T05:49:07;14.50;49.60
46123;DHT22;31856;-35.404;149.120;2023-07-31T05:51:36;14.50;49.60
46123;DHT22;31856;-35.404;149.120;2023-07-31T05:54:06;14.30;50.00
46123;DHT22;31856;-35.404;149.120;2023-07-31T05:56:36;14.30;50.50
46123;DHT22;31856;-35.404;149.120;2023-07-31T05:59:11;14.20;50.50
46123;DHT22;31856;-35.404;149.120;2023-07-31T06:01:41;14.20;51.00
46123;DHT22;31856;-35.404;149.120;2023-07-31T06:04:11;14.20;51.30
46123;DHT22;31856;-35.404;149.120;2023-07-31T06:06:41;14.10;51.40
46123;DHT22;31856;-35.404;149.120;2023-07-31T06:09:11;14.00;51.40
46123;DHT22;31856;-35.404;149.120;2023-07-31T06:11:40;13.80;51.90
46123;DHT22;31856;-35.404;149.120;2023-07-31T06:14:09;13.70;52.30
46123;DHT22;31856;-35.404;149.120;2023-07-31T06:16:39;13.60;52.30
46123;DHT22;31856;-35.404;149.120;2023-07-31T06:19:09;13.60;52.40
46123;DHT22;31856;-35.404;149.120;2023-07-31T06:21:38;13.40;52.80
46123;DHT22;31856;-35.404;149.120;2023-07-31T06:24:08;13.30;53.30
46123;DHT22;31856;-35.404;149.120;2023-07-31T06:26:38;13.20;53.60
46123;DHT22;31856;-35.404;149.120;2023-07-31T06:29:08;13.10;53.90
46123;DHT22;31856;-35.404;149.120;2023-07-31T06:31:38;13.00;54.50
46123;DHT22;31856;-35.404;149.120;2023-07-31T06:34:10;12.90;54.70
46123;DHT22;31856;-35.404;149.120;2023-07-31T06:36:39;12.80;55.10
46123;DHT22;31856;-35.404;149.120;2023-07-31T06:39:09;12.60;55.30
46123;DHT22;31856;-35.404;149.120;2023-07-31T06:41:38;12.50;55.80
46123;DHT22;31856;-35.404;149.120;2023-07-31T06:44:08;12.50;56.20
46123;DHT22;31856;-35.404;149.120;2023-07-31T06:46:37;12.40;56.70
46123;DHT22;31856;-35.404;149.120;2023-07-31T06:49:07;12.30;56.80
46123;DHT22;31856;-35.404;149.120;2023-07-31T06:51:37;12.10;57.10
46123;DHT22;31856;-35.404;149.120;2023-07-31T06:54:08;12.00;57.40
46123;DHT22;31856;-35.404;149.120;2023-07-31T06:56:38;11.90;57.40
46123;DHT22;31856;-35.404;149.120;2023-07-31T06:59:08;11.80;57.50
46123;DHT22;31856;-35.404;149.120;2023-07-31T07:01:38;11.80;57.50
46123;DHT22;31856;-35.404;149.120;2023-07-31T07:04:08;11.60;58.00
46123;DHT22;31856;-35.404;149.120;2023-07-31T07:06:37;11.60;58.10
46123;DHT22;31856;-35.404;149.120;2023-07-31T07:09:07;11.50;58.20
46123;DHT22;31856;-35.404;149.120;2023-07-31T07:11:37;11.40;58.30
46123;DHT22;31856;-35.404;149.120;2023-07-31T07:14:06;11.30;58.60
46123;DHT22;31856;-35.404;149.120;2023-07-31T07:16:36;11.30;59.10
46123;DHT22;31856;-35.404;149.120;2023-07-31T07:19:06;11.20;59.20
46123;DHT22;31856;-35.404;149.120;2023-07-31T07:21:35;11.00;59.50
46123;DHT22;31856;-35.404;149.120;2023-07-31T07:24:04;11.00;59.90
46123;DHT22;31856;-35.404;149.120;2023-07-31T07:26:34;10.90;59.90
46123;DHT22;31856;-35.404;149.120;2023-07-31T07:29:04;10.80;59.90
46123;DHT22;31856;-35.404;149.120;2023-07-31T07:31:36;10.70;60.00
46123;DHT22;31856;-35.404;149.120;2023-07-31T07:34:06;10.60;59.90
46123;DHT22;31856;-35.404;149.120;2023-07-31T07:36:35;10.60;60.30
46123;DHT22;31856;-35.404;149.120;2023-07-31T07:39:08;10.50;60.60
46123;DHT22;31856;-35.404;149.120;2023-07-31T07:41:38;10.50;60.80
46123;DHT22;31856;-35.404;149.120;2023-07-31T07:44:08;10.40;60.80
46123;DHT22;31856;-35.404;149.120;2023-07-31T07:46:38;10.30;61.10
46123;DHT22;31856;-35.404;149.120;2023-07-31T07:49:08;10.30;61.40
46123;DHT22;31856;-35.404;149.120;2023-07-31T07:51:38;10.30;61.40
46123;DHT22;31856;-35.404;149.120;2023-07-31T07:54:08;10.30;61.40
46123;DHT22;31856;-35.404;149.120;2023-07-31T07:56:37;10.30;61.40
46123;DHT22;31856;-35.404;149.120;2023-07-31T07:59:09;10.30;61.50
46123;DHT22;31856;-35.404;149.120;2023-07-31T08:01:38;10.30;61.40
46123;DHT22;31856;-35.404;149.120;2023-07-31T08:04:08;10.20;61.60
46123;DHT22;31856;-35.404;149.120;2023-07-31T08:06:38;10.20;61.60
46123;DHT22;31856;-35.404;149.120;2023-07-31T08:09:08;10.20;61.70
46123;DHT22;31856;-35.404;149.120;2023-07-31T08:11:38;10.20;61.80
46123;DHT22;31856;-35.404;149.120;2023-07-31T08:14:07;10.10;62.10
46123;DHT22;31856;-35.404;149.120;2023-07-31T08:16:37;10.10;62.00
46123;DHT22;31856;-35.404;149.120;2023-07-31T08:19:07;10.10;61.90
46123;DHT22;31856;-35.404;149.120;2023-07-31T08:21:37;10.10;61.90
46123;DHT22;31856;-35.404;149.120;2023-07-31T08:24:07;10.10;62.10
46123;DHT22;31856;-35.404;149.120;2023-07-31T08:26:37;10.10;62.10
46123;DHT22;31856;-35.404;149.120;2023-07-31T08:29:06;10.00;62.20
46123;DHT22;31856;-35.404;149.120;2023-07-31T08:31:36;10.00;62.30
46123;DHT22;31856;-35.404;149.120;2023-07-31T08:34:05;9.90;62.50
46123;DHT22;31856;-35.404;149.120;2023-07-31T08:36:35;9.80;62.70
46123;DHT22;31856;-35.404;149.120;2023-07-31T08:39:05;9.80;62.80
46123;DHT22;31856;-35.404;149.120;2023-07-31T08:41:38;9.80;62.90
46123;DHT22;31856;-35.404;149.120;2023-07-31T08:44:10;9.80;62.50
46123;DHT22;31856;-35.404;149.120;2023-07-31T08:46:41;9.80;62.80
46123;DHT22;31856;-35.404;149.120;2023-07-31T08:49:11;9.70;62.80
46123;DHT22;31856;-35.404;149.120;2023-07-31T08:51:41;9.70;63.00
46123;DHT22;31856;-35.404;149.120;2023-07-31T08:54:10;9.60;62.70
46123;DHT22;31856;-35.404;149.120;2023-07-31T08:56:40;9.50;62.70
46123;DHT22;31856;-35.404;149.120;2023-07-31T08:59:11;9.50;62.60
46123;DHT22;31856;-35.404;149.120;2023-07-31T09:01:43;9.40;62.80
46123;DHT22;31856;-35.404;149.120;2023-07-31T09:04:13;9.40;63.00
46123;DHT22;31856;-35.404;149.120;2023-07-31T09:06:43;9.30;62.90
46123;DHT22;31856;-35.404;149.120;2023-07-31T09:09:13;9.30;62.70
46123;DHT22;31856;-35.404;149.120;2023-07-31T09:11:43;9.30;62.80
46123;DHT22;31856;-35.404;149.120;2023-07-31T09:14:13;9.30;63.10
46123;DHT22;31856;-35.404;149.120;2023-07-31T09:16:56;9.30;63.30
46123;DHT22;31856;-35.404;149.120;2023-07-31T09:19:28;9.30;63.40
46123;DHT22;31856;-35.404;149.120;2023-07-31T09:21:58;9.20;63.60
46123;DHT22;31856;-35.404;149.120;2023-07-31T09:24:28;9.20;63.60
46123;DHT22;31856;-35.404;149.120;2023-07-31T09:26:59;9.20;63.60
46123;DHT22;31856;-35.404;149.120;2023-07-31T09:29:29;9.20;62.70
46123;DHT22;31856;-35.404;149.120;2023-07-31T09:31:59;9.30;62.50
46123;DHT22;31856;-35.404;149.120;2023-07-31T09:34:30;9.30;63.00
46123;DHT22;31856;-35.404;149.120;2023-07-31T09:37:07;9.30;63.20
46123;DHT22;31856;-35.404;149.120;2023-07-31T09:39:46;9.30;63.30
46123;DHT22;31856;-35.404;149.120;2023-07-31T09:42:26;9.30;63.10
46123;DHT22;31856;-35.404;149.120;2023-07-31T09:45:06;9.30;63.20
46123;DHT22;31856;-35.404;149.120;2023-07-31T09:47:36;9.20;63.10
46123;DHT22;31856;-35.404;149.120;2023-07-31T09:50:09;9.20;63.00
46123;DHT22;31856;-35.404;149.120;2023-07-31T09:52:38;9.20;63.40
46123;DHT22;31856;-35.404;149.120;2023-07-31T09:55:10;9.20;63.40
46123;DHT22;31856;-35.404;149.120;2023-07-31T09:57:40;9.10;63.60
46123;DHT22;31856;-35.404;149.120;2023-07-31T10:00:13;9.10;63.80
46123;DHT22;31856;-35.404;149.120;2023-07-31T10:02:46;9.10;63.20
46123;DHT22;31856;-35.404;149.120;2023-07-31T10:05:16;9.20;62.40
46123;DHT22;31856;-35.404;149.120;2023-07-31T10:08:05;9.20;62.30
46123;DHT22;31856;-35.404;149.120;2023-07-31T10:10:36;9.20;62.50
46123;DHT22;31856;-35.404;149.120;2023-07-31T10:13:06;9.20;62.60
46123;DHT22;31856;-35.404;149.120;2023-07-31T10:15:36;9.20;62.80
46123;DHT22;31856;-35.404;149.120;2023-07-31T10:18:06;9.20;62.70
46123;DHT22;31856;-35.404;149.120;2023-07-31T10:20:37;9.20;62.70
46123;DHT22;31856;-35.404;149.120;2023-07-31T10:23:07;9.10;62.80
46123;DHT22;31856;-35.404;149.120;2023-07-31T10:25:37;9.10;62.80
46123;DHT22;31856;-35.404;149.120;2023-07-31T10:28:08;9.10;62.80
46123;DHT22;31856;-35.404;149.120;2023-07-31T10:30:37;9.20;62.70
46123;DHT22;31856;-35.404;149.120;2023-07-31T10:33:08;9.10;62.80
46123;DHT22;31856;-35.404;149.120;2023-07-31T10:35:38;9.20;62.70
46123;DHT22;31856;-35.404;149.120;2023-07-31T10:38:10;9.20;62.70
46123;DHT22;31856;-35.404;149.120;2023-07-31T10:40:43;9.20;62.90
46123;DHT22;31856;-35.404;149.120;2023-07-31T10:43:23;9.20;62.70
46123;DHT22;31856;-35.404;149.120;2023-07-31T10:45:55;9.20;62.60
46123;DHT22;31856;-35.404;149.120;2023-07-31T10:48:25;9.30;62.60
46123;DHT22;31856;-35.404;149.120;2023-07-31T10:51:06;9.20;62.60
46123;DHT22;31856;-35.404;149.120;2023-07-31T10:53:36;9.30;62.50
46123;DHT22;31856;-35.404;149.120;2023-07-31T10:56:09;9.30;62.60
46123;DHT22;31856;-35.404;149.120;2023-07-31T10:58:44;9.30;62.60
46123;DHT22;31856;-35.404;149.120;2023-07-31T11:01:18;9.20;62.50
46123;DHT22;31856;-35.404;149.120;2023-07-31T11:03:50;9.20;62.80
46123;DHT22;31856;-35.404;149.120;2023-07-31T11:06:22;9.00;63.40
46123;DHT22;31856;-35.404;149.120;2023-07-31T11:08:51;9.10;63.40
46123;DHT22;31856;-35.404;149.120;2023-07-31T11:11:21;9.00;63.40
46123;DHT22;31856;-35.404;149.120;2023-07-31T11:13:53;9.00;63.60
46123;DHT22;31856;-35.404;149.120;2023-07-31T11:16:24;8.90;63.80
46123;DHT22;31856;-35.404;149.120;2023-07-31T11:18:54;8.90;64.00
46123;DHT22;31856;-35.404;149.120;2023-07-31T11:21:25;8.90;64.30
46123;DHT22;31856;-35.404;149.120;2023-07-31T11:23:57;8.80;64.50
46123;DHT22;31856;-35.404;149.120;2023-07-31T11:26:27;8.80;65.00
46123;DHT22;31856;-35.404;149.120;2023-07-31T11:28:57;8.80;65.40
46123;DHT22;31856;-35.404;149.120;2023-07-31T11:31:26;8.80;65.30
46123;DHT22;31856;-35.404;149.120;2023-07-31T11:34:06;8.80;65.20
46123;DHT22;31856;-35.404;149.120;2023-07-31T11:36:36;8.80;65.40
46123;DHT22;31856;-35.404;149.120;2023-07-31T11:39:07;8.80;65.60
46123;DHT22;31856;-35.404;149.120;2023-07-31T11:41:40;8.80;65.50
46123;DHT22;31856;-35.404;149.120;2023-07-31T17:36:08;8.20;67.00
46123;DHT22;31856;-35.404;149.120;2023-07-31T17:38:38;8.10;67.00
46123;DHT22;31856;-35.404;149.120;2023-07-31T17:41:08;8.10;67.20
46123;DHT22;31856;-35.404;149.120;2023-07-31T17:43:38;8.10;67.00
46123;DHT22;31856;-35.404;149.120;2023-07-31T17:46:07;8.10;67.10
46123;DHT22;31856;-35.404;149.120;2023-07-31T17:48:37;8.10;67.20
46123;DHT22;31856;-35.404;149.120;2023-07-31T17:51:06;8.10;66.90
46123;DHT22;31856;-35.404;149.120;2023-07-31T17:53:36;8.10;67.00
46123;DHT22;31856;-35.404;149.120;2023-07-31T17:56:05;8.10;67.00
46123;DHT22;31856;-35.404;149.120;2023-07-31T17:58:35;8.10;66.80
46123;DHT22;31856;-35.404;149.120;2023-07-31T18:01:05;8.20;66.80
46123;DHT22;31856;-35.404;149.120;2023-07-31T18:03:35;8.20;66.90
46123;DHT22;31856;-35.404;149.120;2023-07-31T18:06:04;8.20;66.80
46123;DHT22;31856;-35.404;149.120;2023-07-31T18:08:34;8.20;66.70
46123;DHT22;31856;-35.404;149.120;2023-07-31T18:11:05;8.20;66.70
46123;DHT22;31856;-35.404;149.120;2023-07-31T18:13:35;8.10;66.70
46123;DHT22;31856;-35.404;149.120;2023-07-31T18:16:04;8.20;66.80
46123;DHT22;31856;-35.404;149.120;2023-07-31T18:18:34;8.10;66.80
46123;DHT22;31856;-35.404;149.120;2023-07-31T18:21:04;8.10;67.00
46123;DHT22;31856;-35.404;149.120;2023-07-31T18:23:34;8.10;67.10
46123;DHT22;31856;-35.404;149.120;2023-07-31T18:26:04;8.00;67.30
46123;DHT22;31856;-35.404;149.120;2023-07-31T18:28:33;8.00;67.50
46123;DHT22;31856;-35.404;149.120;2023-07-31T18:31:03;8.00;67.50
46123;DHT22;31856;-35.404;149.120;2023-07-31T18:33:34;8.00;67.50
46123;DHT22;31856;-35.404;149.120;2023-07-31T18:36:05;8.00;67.80
46123;DHT22;31856;-35.404;149.120;2023-07-31T18:38:35;7.90;68.00
46123;DHT22;31856;-35.404;149.120;2023-07-31T18:41:05;7.90;68.20
46123;DHT22;31856;-35.404;149.120;2023-07-31T18:43:35;7.90;68.10
46123;DHT22;31856;-35.404;149.120;2023-07-31T18:46:04;7.80;68.20
46123;DHT22;31856;-35.404;149.120;2023-07-31T18:48:38;7.80;68.30
46123;DHT22;31856;-35.404;149.120;2023-07-31T18:51:07;7.90;68.30
46123;DHT22;31856;-35.404;149.120;2023-07-31T18:53:37;7.80;68.40
46123;DHT22;31856;-35.404;149.120;2023-07-31T18:56:07;7.80;68.40
46123;DHT22;31856;-35.404;149.120;2023-07-31T18:58:37;7.80;68.50
46123;DHT22;31856;-35.404;149.120;2023-07-31T19:01:06;7.80;68.50
46123;DHT22;31856;-35.404;149.120;2023-07-31T19:03:36;7.70;68.50
46123;DHT22;31856;-35.404;149.120;2023-07-31T19:06:06;7.80;68.60
46123;DHT22;31856;-35.404;149.120;2023-07-31T19:08:37;7.70;68.70
46123;DHT22;31856;-35.404;149.120;2023-07-31T19:11:07;7.70;68.80
46123;DHT22;31856;-35.404;149.120;2023-07-31T19:13:41;7.70;68.90
46123;DHT22;31856;-35.404;149.120;2023-07-31T19:16:11;7.80;68.70
46123;DHT22;31856;-35.404;149.120;2023-07-31T19:18:41;7.80;68.70
46123;DHT22;31856;-35.404;149.120;2023-07-31T19:21:11;7.80;68.70
46123;DHT22;31856;-35.404;149.120;2023-07-31T19:23:43;7.70;68.80
46123;DHT22;31856;-35.404;149.120;2023-07-31T19:26:12;7.80;68.80
46123;DHT22;31856;-35.404;149.120;2023-07-31T19:28:42;7.70;68.80
46123;DHT22;31856;-35.404;149.120;2023-07-31T19:31:12;7.70;69.00
46123;DHT22;31856;-35.404;149.120;2023-07-31T19:33:41;7.70;69.00
46123;DHT22;31856;-35.404;149.120;2023-07-31T19:36:11;7.70;69.10
46123;DHT22;31856;-35.404;149.120;2023-07-31T19:38:40;7.70;69.10
46123;DHT22;31856;-35.404;149.120;2023-07-31T19:41:10;7.60;69.00
46123;DHT22;31856;-35.404;149.120;2023-07-31T19:43:40;7.70;69.00
46123;DHT22;31856;-35.404;149.120;2023-07-31T19:46:09;7.70;69.10
46123;DHT22;31856;-35.404;149.120;2023-07-31T19:48:39;7.60;69.20
46123;DHT22;31856;-35.404;149.120;2023-07-31T19:51:08;7.70;69.20
46123;DHT22;31856;-35.404;149.120;2023-07-31T19:53:38;7.70;69.30
46123;DHT22;31856;-35.404;149.120;2023-07-31T19:56:08;7.70;69.30
46123;DHT22;31856;-35.404;149.120;2023-07-31T19:58:37;7.70;69.40
46123;DHT22;31856;-35.404;149.120;2023-07-31T20:01:09;7.70;69.20
46123;DHT22;31856;-35.404;149.120;2023-07-31T20:03:39;7.70;69.40
46123;DHT22;31856;-35.404;149.120;2023-07-31T20:06:09;7.70;69.30
46123;DHT22;31856;-35.404;149.120;2023-07-31T20:08:38;7.60;69.50
46123;DHT22;31856;-35.404;149.120;2023-07-31T20:11:08;7.60;69.60
46123;DHT22;31856;-35.404;149.120;2023-07-31T20:13:38;7.60;69.70
46123;DHT22;31856;-35.404;149.120;2023-07-31T20:16:07;7.60;69.80
46123;DHT22;31856;-35.404;149.120;2023-07-31T20:18:37;7.60;69.70
46123;DHT22;31856;-35.404;149.120;2023-07-31T20:21:10;7.60;69.70
46123;DHT22;31856;-35.404;149.120;2023-07-31T20:23:39;7.50;69.70
46123;DHT22;31856;-35.404;149.120;2023-07-31T20:26:10;7.60;69.90
46123;DHT22;31856;-35.404;149.120;2023-07-31T20:28:39;7.60;70.10
46123;DHT22;31856;-35.404;149.120;2023-07-31T20:31:09;7.60;70.00
46123;DHT22;31856;-35.404;149.120;2023-07-31T20:33:39;7.60;69.70
46123;DHT22;31856;-35.404;149.120;2023-07-31T20:36:09;7.60;69.70
46123;DHT22;31856;-35.404;149.120;2023-07-31T20:38:39;7.50;69.90
46123;DHT22;31856;-35.404;149.120;2023-07-31T20:41:12;7.40;70.10
46123;DHT22;31856;-35.404;149.120;2023-07-31T20:43:41;7.30;70.50
46123;DHT22;31856;-35.404;149.120;2023-07-31T20:46:12;7.30;70.90
46123;DHT22;31856;-35.404;149.120;2023-07-31T20:48:44;7.30;71.60
46123;DHT22;31856;-35.404;149.120;2023-07-31T20:51:13;7.20;71.60
46123;DHT22;31856;-35.404;149.120;2023-07-31T20:53:43;7.20;71.80
46123;DHT22;31856;-35.404;149.120;2023-07-31T20:56:12;7.10;72.00
46123;DHT22;31856;-35.404;149.120;2023-07-31T20:58:42;7.20;72.20
46123;DHT22;31856;-35.404;149.120;2023-07-31T21:01:11;7.10;72.30
46123;DHT22;31856;-35.404;149.120;2023-07-31T21:03:41;7.10;72.40
46123;DHT22;31856;-35.404;149.120;2023-07-31T21:06:11;7.00;72.50
46123;DHT22;31856;-35.404;149.120;2023-07-31T21:08:41;7.00;72.60
46123;DHT22;31856;-35.404;149.120;2023-07-31T21:11:11;7.00;72.80